createdAt,value
2019-02-24T00:00:09.346Z,104370.00
2019-02-24T00:01:47.847Z,104368.00
2019-02-24T00:03:22.948Z,104372.00
2019-02-24T00:04:58.048Z,104391.00
2019-02-24T00:06:33.395Z,104379.00
2019-02-24T00:08:08.483Z,104381.00
2019-02-24T00:09:43.583Z,104380.00
2019-02-24T00:11:18.919Z,104391.00
2019-02-24T00:12:54.009Z,104372.00
2019-02-24T00:14:29.106Z,104373.00
2019-02-24T00:16:04.191Z,104372.00
2019-02-24T00:17:39.288Z,104382.00
2019-02-24T00:19:14.390Z,104369.00
2019-02-24T00:20:49.728Z,104366.00
2019-02-24T00:22:24.817Z,104364.00
2019-02-24T00:23:59.917Z,104366.00
2019-02-24T00:25:35.013Z,104377.00
2019-02-24T00:27:10.101Z,104375.00
2019-02-24T00:28:45.192Z,104369.00
2019-02-24T00:30:20.295Z,104374.00
2019-02-24T00:31:55.380Z,104374.00
2019-02-24T00:33:30.466Z,104376.00
2019-02-24T00:35:06.403Z,104373.00
2019-02-24T00:36:41.799Z,104375.00
2019-02-24T00:38:17.259Z,104376.00
2019-02-24T00:39:52.379Z,104372.00
2019-02-24T00:41:27.577Z,104373.00
2019-02-24T00:43:02.665Z,104371.00
2019-02-24T00:44:37.758Z,104371.00
2019-02-24T00:46:12.849Z,104369.00
2019-02-24T00:47:47.936Z,104366.00
2019-02-24T00:49:23.041Z,104355.00
2019-02-24T00:50:58.116Z,104358.00
2019-02-24T00:52:34.172Z,104351.00
2019-02-24T00:54:09.272Z,104341.00
2019-02-24T00:55:44.358Z,104345.00
2019-02-24T00:57:19.445Z,104339.00
2019-02-24T00:58:54.534Z,104345.00
2019-02-24T01:00:29.997Z,104342.00
2019-02-24T01:02:05.087Z,104329.00
2019-02-24T01:03:40.177Z,104335.00
2019-02-24T01:05:15.572Z,104337.00
2019-02-24T01:06:52.032Z,104342.00
2019-02-24T01:08:27.873Z,104337.00
2019-02-24T01:10:04.086Z,104338.00
2019-02-24T01:11:39.178Z,104334.00
2019-02-24T01:13:14.273Z,104328.00
2019-02-24T01:14:49.369Z,104337.00
2019-02-24T01:16:24.453Z,104326.00
2019-02-24T01:17:59.543Z,104324.00
2019-02-24T01:19:34.645Z,104330.00
2019-02-24T01:21:09.746Z,104334.00
2019-02-24T01:22:44.844Z,104335.00
2019-02-24T01:24:20.198Z,104334.00
2019-02-24T01:25:55.294Z,104339.00
2019-02-24T01:27:30.382Z,104343.00
2019-02-24T01:29:05.478Z,104356.00
2019-02-24T01:30:40.571Z,104350.00
2019-02-24T01:32:15.665Z,104356.00
2019-02-24T01:33:50.761Z,104351.00
2019-02-24T01:35:25.861Z,104356.00
2019-02-24T01:37:01.236Z,104353.00
2019-02-24T01:38:36.325Z,104347.00
2019-02-24T01:40:11.424Z,104332.00
2019-02-24T01:41:46.516Z,104306.00
2019-02-24T01:43:21.604Z,104300.00
2019-02-24T01:44:56.710Z,104316.00
2019-02-24T01:46:31.804Z,104311.00
2019-02-24T01:48:06.889Z,104299.00
2019-02-24T01:49:41.988Z,104290.00
2019-02-24T01:51:17.077Z,104293.00
2019-02-24T01:52:52.168Z,104290.00
2019-02-24T01:54:28.686Z,104290.00
2019-02-24T01:56:04.036Z,104293.00
2019-02-24T01:57:39.126Z,104296.00
2019-02-24T01:59:14.227Z,104306.00
2019-02-24T02:00:49.354Z,104302.00
2019-02-24T02:02:24.425Z,104303.00
2019-02-24T02:03:59.519Z,104303.00
2019-02-24T02:05:34.909Z,104300.00
2019-02-24T02:07:09.998Z,104308.00
2019-02-24T02:08:45.089Z,104309.00
2019-02-24T02:10:21.156Z,104309.00
2019-02-24T02:11:56.252Z,104312.00
2019-02-24T02:13:31.340Z,104313.00
2019-02-24T02:15:07.225Z,104311.00
2019-02-24T02:16:42.311Z,104307.00
2019-02-24T02:18:17.687Z,104312.00
2019-02-24T02:19:52.788Z,104317.00
2019-02-24T02:21:28.747Z,104315.00
2019-02-24T02:23:04.100Z,104310.00
2019-02-24T02:24:39.191Z,104320.00
2019-02-24T02:26:14.290Z,104316.00
2019-02-24T02:27:49.372Z,104317.00
2019-02-24T02:29:24.465Z,104311.00
2019-02-24T02:30:59.561Z,104313.00
2019-02-24T02:32:34.734Z,104310.00
2019-02-24T02:34:09.831Z,104300.00
2019-02-24T02:35:44.924Z,104304.00
2019-02-24T02:37:20.008Z,104298.00
2019-02-24T02:38:55.100Z,104303.00
2019-02-24T02:40:30.203Z,104292.00
2019-02-24T02:42:05.297Z,104289.00
2019-02-24T02:43:40.388Z,104292.00
2019-02-24T02:45:15.488Z,104291.00
2019-02-24T02:46:50.577Z,104281.00
2019-02-24T02:48:25.663Z,104281.00
2019-02-24T02:50:00.749Z,104288.00
2019-02-24T02:51:36.100Z,104282.00
2019-02-24T02:53:11.196Z,104278.00
2019-02-24T02:54:46.285Z,104279.00
2019-02-24T02:56:21.379Z,104281.00
2019-02-24T02:57:56.467Z,104283.00
2019-02-24T02:59:31.560Z,104279.00
2019-02-24T03:01:06.663Z,104269.00
2019-02-24T03:02:41.794Z,104267.00
2019-02-24T03:04:16.845Z,104274.00
2019-02-24T03:05:53.586Z,104279.00
2019-02-24T03:07:31.103Z,104295.00
2019-02-24T03:09:07.902Z,104301.00
2019-02-24T03:10:43.177Z,104298.00
2019-02-24T03:12:18.268Z,104301.00
2019-02-24T03:13:53.363Z,104303.00
2019-02-24T03:15:29.587Z,104306.00
2019-02-24T03:17:04.742Z,104310.00
2019-02-24T03:18:39.832Z,104303.00
2019-02-24T03:20:14.922Z,104301.00
2019-02-24T03:21:50.024Z,104316.00
2019-02-24T03:23:25.108Z,104304.00
2019-02-24T03:25:00.330Z,104307.00
2019-02-24T03:26:35.432Z,104309.00
2019-02-24T03:28:10.519Z,104302.00
2019-02-24T03:29:45.621Z,104297.00
2019-02-24T03:31:20.723Z,104293.00
2019-02-24T03:32:56.890Z,104301.00
2019-02-24T03:34:33.884Z,104294.00
2019-02-24T03:36:08.975Z,104295.00
2019-02-24T03:37:44.062Z,104296.00
2019-02-24T03:39:19.146Z,104294.00
2019-02-24T03:40:54.243Z,104294.00
2019-02-24T03:42:29.893Z,104293.00
2019-02-24T03:44:04.985Z,104298.00
2019-02-24T03:45:41.055Z,104303.00
2019-02-24T03:47:16.138Z,104304.00
2019-02-24T03:48:51.233Z,104304.00
2019-02-24T03:50:26.321Z,104305.00
2019-02-24T03:52:01.425Z,104305.00
2019-02-24T03:53:36.506Z,104307.00
2019-02-24T03:55:11.596Z,104314.00
2019-02-24T03:56:46.690Z,104312.00
2019-02-24T03:58:21.791Z,104315.00
2019-02-24T03:59:56.880Z,104310.00
2019-02-24T04:01:31.979Z,104307.00
2019-02-24T04:03:07.084Z,104310.00
2019-02-24T04:04:42.158Z,104304.00
2019-02-24T04:06:17.260Z,104301.00
2019-02-24T04:07:52.355Z,104303.00
2019-02-24T04:09:27.447Z,104300.00
2019-02-24T04:11:02.549Z,104296.00
2019-02-24T04:12:37.636Z,104297.00
2019-02-24T04:14:12.729Z,104296.00
2019-02-24T04:15:48.084Z,104294.00
2019-02-24T04:17:23.167Z,104294.00
2019-02-24T04:18:58.276Z,104292.00
2019-02-24T04:20:33.422Z,104297.00
2019-02-24T04:22:08.523Z,104282.00
2019-02-24T04:23:43.613Z,104290.00
2019-02-24T04:25:18.936Z,104291.00
2019-02-24T04:26:54.039Z,104282.00
2019-02-24T04:28:30.250Z,104275.00
2019-02-24T04:30:06.480Z,104286.00
2019-02-24T04:31:41.571Z,104290.00
2019-02-24T04:33:16.656Z,104293.00
2019-02-24T04:34:51.748Z,104288.00
2019-02-24T04:36:26.848Z,104293.00
2019-02-24T04:38:01.937Z,104291.00
2019-02-24T04:39:37.354Z,104295.00
2019-02-24T04:41:12.454Z,104292.00
2019-02-24T04:42:47.548Z,104302.00
2019-02-24T04:44:22.636Z,104301.00
2019-02-24T04:45:58.068Z,104292.00
2019-02-24T04:47:33.159Z,104296.00
2019-02-24T04:49:08.246Z,104296.00
2019-02-24T04:50:43.348Z,104298.00
2019-02-24T04:52:18.697Z,104282.00
2019-02-24T04:53:53.785Z,104283.00
2019-02-24T04:55:28.951Z,104272.00
2019-02-24T04:57:04.050Z,104265.00
2019-02-24T04:58:39.131Z,104271.00
2019-02-24T05:00:14.225Z,104255.00
2019-02-24T05:01:49.346Z,104270.00
2019-02-24T05:03:24.437Z,104270.00
2019-02-24T05:05:00.640Z,104278.00
2019-02-24T05:06:35.739Z,104266.00
2019-02-24T05:08:10.823Z,104275.00
2019-02-24T05:09:46.893Z,104274.00
2019-02-24T05:11:21.987Z,104281.00
2019-02-24T05:12:57.086Z,104288.00
2019-02-24T05:14:32.185Z,104285.00
2019-02-24T05:16:07.274Z,104286.00
2019-02-24T05:17:42.374Z,104274.00
2019-02-24T05:19:18.535Z,104267.00
2019-02-24T05:20:53.635Z,104277.00
2019-02-24T05:22:28.736Z,104273.00
2019-02-24T05:24:03.817Z,104269.00
2019-02-24T05:25:38.919Z,104258.00
2019-02-24T05:27:14.013Z,104266.00
2019-02-24T05:28:49.098Z,104249.00
2019-02-24T05:30:24.189Z,104246.00
2019-02-24T05:31:59.295Z,104238.00
2019-02-24T05:33:34.383Z,104237.00
2019-02-24T05:35:09.475Z,104242.00
2019-02-24T05:36:44.576Z,104238.00
2019-02-24T05:38:19.665Z,104238.00
2019-02-24T05:39:55.491Z,104237.00
2019-02-24T05:41:31.094Z,104241.00
2019-02-24T05:43:06.194Z,104239.00
2019-02-24T05:44:41.284Z,104234.00
2019-02-24T05:46:16.372Z,104233.00
2019-02-24T05:47:51.830Z,104229.00
2019-02-24T05:49:26.939Z,104224.00
2019-02-24T05:51:02.010Z,104219.00
2019-02-24T05:52:37.125Z,104215.00
2019-02-24T05:54:13.189Z,104213.00
2019-02-24T05:55:48.328Z,104201.00
2019-02-24T05:57:23.381Z,104207.00
2019-02-24T05:58:58.477Z,104204.00
2019-02-24T06:00:33.558Z,104214.00
2019-02-24T06:02:08.657Z,104221.00
2019-02-24T06:03:43.753Z,104220.00
2019-02-24T06:05:18.848Z,104219.00
2019-02-24T06:06:53.959Z,104207.00
2019-02-24T06:08:29.044Z,104206.00
2019-02-24T06:10:04.985Z,104205.00
2019-02-24T06:11:40.077Z,104216.00
2019-02-24T06:13:16.253Z,104219.00
2019-02-24T06:14:51.341Z,104232.00
2019-02-24T06:16:26.434Z,104235.00
2019-02-24T06:18:01.536Z,104240.00
2019-02-24T06:19:36.627Z,104244.00
2019-02-24T06:21:12.008Z,104255.00
2019-02-24T06:22:47.112Z,104264.00
2019-02-24T06:24:22.209Z,104264.00
2019-02-24T06:25:57.302Z,104261.00
2019-02-24T06:27:32.407Z,104266.00
2019-02-24T06:29:07.508Z,104266.00
2019-02-24T06:30:42.595Z,104277.00
2019-02-24T06:32:17.694Z,104269.00
2019-02-24T06:33:52.792Z,104262.00
2019-02-24T06:35:27.883Z,104253.00
2019-02-24T06:37:03.302Z,104248.00
2019-02-24T06:38:38.717Z,104261.00
2019-02-24T06:40:14.076Z,104256.00
2019-02-24T06:41:49.161Z,104249.00
2019-02-24T06:43:24.255Z,104254.00
2019-02-24T06:44:59.347Z,104255.00
2019-02-24T06:46:34.445Z,104251.00
2019-02-24T06:48:09.545Z,104254.00
2019-02-24T06:49:44.638Z,104259.00
2019-02-24T06:51:19.901Z,104265.00
2019-02-24T06:52:55.001Z,104260.00
2019-02-24T06:54:30.348Z,104247.00
2019-02-24T06:56:05.440Z,104235.00
2019-02-24T06:57:40.538Z,104240.00
2019-02-24T06:59:15.629Z,104245.00
2019-02-24T07:00:50.726Z,104241.00
2019-02-24T07:02:26.098Z,104235.00
2019-02-24T07:04:02.027Z,104236.00
2019-02-24T07:05:37.117Z,104236.00
2019-02-24T07:07:12.217Z,104230.00
2019-02-24T07:08:47.304Z,104241.00
2019-02-24T07:10:22.395Z,104243.00
2019-02-24T07:11:57.487Z,104244.00
2019-02-24T07:13:32.600Z,104236.00
2019-02-24T07:15:09.135Z,104246.00
2019-02-24T07:16:44.293Z,104235.00
2019-02-24T07:18:19.754Z,104230.00
2019-02-24T07:19:54.845Z,104231.00
2019-02-24T07:21:30.215Z,104241.00
2019-02-24T07:23:05.313Z,104254.00
2019-02-24T07:24:40.578Z,104259.00
2019-02-24T07:26:15.673Z,104260.00
2019-02-24T07:27:50.775Z,104260.00
2019-02-24T07:29:25.942Z,104254.00
2019-02-24T07:31:01.026Z,104243.00
2019-02-24T07:32:36.127Z,104250.00
2019-02-24T07:34:11.219Z,104232.00
2019-02-24T07:35:46.316Z,104237.00
2019-02-24T07:37:21.431Z,104235.00
2019-02-24T07:38:56.849Z,104236.00
2019-02-24T07:40:31.940Z,104253.00
2019-02-24T07:42:07.028Z,104244.00
2019-02-24T07:43:42.131Z,104240.00
2019-02-24T07:45:17.215Z,104239.00
2019-02-24T07:46:52.312Z,104245.00
2019-02-24T07:48:27.414Z,104248.00
2019-02-24T07:50:02.512Z,104252.00
2019-02-24T07:51:37.593Z,104260.00
2019-02-24T07:53:12.700Z,104263.00
2019-02-24T07:54:47.800Z,104257.00
2019-02-24T07:56:22.893Z,104267.00
2019-02-24T07:57:57.998Z,104267.00
2019-02-24T07:59:33.108Z,104268.00
2019-02-24T08:01:08.186Z,104262.00
2019-02-24T08:02:43.285Z,104264.00
2019-02-24T08:04:18.373Z,104271.00
2019-02-24T08:05:53.464Z,104266.00
2019-02-24T08:07:28.553Z,104263.00
2019-02-24T08:09:05.311Z,104268.00
2019-02-24T08:10:40.404Z,104259.00
2019-02-24T08:12:15.492Z,104261.00
2019-02-24T08:13:50.600Z,104250.00
2019-02-24T08:15:25.683Z,104268.00
2019-02-24T08:17:00.786Z,104265.00
2019-02-24T08:18:35.884Z,104273.00
2019-02-24T08:20:10.974Z,104275.00
2019-02-24T08:21:46.069Z,104280.00
2019-02-24T08:23:21.172Z,104290.00
2019-02-24T08:24:56.465Z,104293.00
2019-02-24T08:26:31.557Z,104291.00
2019-02-24T08:28:06.661Z,104295.00
2019-02-24T08:29:42.023Z,104295.00
2019-02-24T08:31:17.369Z,104294.00
2019-02-24T08:32:52.474Z,104296.00
2019-02-24T08:34:27.561Z,104294.00
2019-02-24T08:36:02.656Z,104298.00
2019-02-24T08:37:37.747Z,104302.00
2019-02-24T08:39:12.848Z,104299.00
2019-02-24T08:40:47.954Z,104304.00
2019-02-24T08:42:23.049Z,104311.00
2019-02-24T08:43:58.159Z,104310.00
2019-02-24T08:45:33.263Z,104319.00
2019-02-24T08:47:08.359Z,104315.00
2019-02-24T08:48:43.464Z,104317.00
2019-02-24T08:50:18.554Z,104315.00
2019-02-24T08:51:53.644Z,104317.00
2019-02-24T08:53:28.747Z,104325.00
2019-02-24T08:55:04.132Z,104323.00
2019-02-24T08:56:39.226Z,104323.00
2019-02-24T08:58:14.333Z,104316.00
2019-02-24T08:59:49.432Z,104322.00
2019-02-24T09:01:24.830Z,104322.00
2019-02-24T09:02:59.935Z,104329.00
2019-02-24T09:04:35.821Z,104326.00
2019-02-24T09:06:10.929Z,104329.00
2019-02-24T09:07:46.023Z,104327.00
2019-02-24T09:09:21.121Z,104330.00
2019-02-24T09:10:56.215Z,104335.00
2019-02-24T09:12:31.304Z,104331.00
2019-02-24T09:14:06.409Z,104342.00
2019-02-24T09:15:41.497Z,104339.00
2019-02-24T09:17:16.596Z,104344.00
2019-02-24T09:18:51.706Z,104334.00
2019-02-24T09:20:27.106Z,104340.00
2019-02-24T09:22:02.194Z,104334.00
2019-02-24T09:23:37.294Z,104341.00
2019-02-24T09:25:12.378Z,104334.00
2019-02-24T09:26:47.471Z,104337.00
2019-02-24T09:28:22.578Z,104352.00
2019-02-24T09:29:57.668Z,104351.00
2019-02-24T09:31:32.765Z,104350.00
2019-02-24T09:33:07.854Z,104361.00
2019-02-24T09:34:42.966Z,104356.00
2019-02-24T09:36:18.054Z,104349.00
2019-02-24T09:37:53.154Z,104365.00
2019-02-24T09:39:28.254Z,104355.00
2019-02-24T09:41:03.356Z,104347.00
2019-02-24T09:42:39.534Z,104363.00
2019-02-24T09:44:14.991Z,104357.00
2019-02-24T09:45:50.098Z,104351.00
2019-02-24T09:47:25.539Z,104345.00
2019-02-24T09:49:00.642Z,104357.00
2019-02-24T09:50:36.306Z,104357.00
2019-02-24T09:52:11.398Z,104353.00
2019-02-24T09:53:46.498Z,104349.00
2019-02-24T09:55:21.598Z,104351.00
2019-02-24T09:56:56.941Z,104335.00
2019-02-24T09:58:32.038Z,104339.00
2019-02-24T10:00:15.695Z,104344.00
2019-02-24T10:01:50.794Z,104339.00
2019-02-24T10:03:25.899Z,104345.00
2019-02-24T10:05:00.992Z,104341.00
2019-02-24T10:06:36.594Z,104351.00
2019-02-24T10:08:11.720Z,104337.00
2019-02-24T10:09:47.103Z,104338.00
2019-02-24T10:11:22.520Z,104347.00
2019-02-24T10:12:57.617Z,104346.00
2019-02-24T10:14:34.548Z,104355.00
2019-02-24T10:16:09.592Z,104340.00
2019-02-24T10:17:44.686Z,104340.00
2019-02-24T10:19:19.786Z,104342.00
2019-02-24T10:20:54.873Z,104343.00
2019-02-24T10:22:29.974Z,104341.00
2019-02-24T10:24:05.076Z,104335.00
2019-02-24T10:25:40.186Z,104328.00
2019-02-24T10:27:16.250Z,104330.00
2019-02-24T10:28:51.350Z,104332.00
2019-02-24T10:30:26.739Z,104318.00
2019-02-24T10:32:01.836Z,104325.00
2019-02-24T10:33:37.593Z,104323.00
2019-02-24T10:35:13.059Z,104327.00
2019-02-24T10:36:48.488Z,104334.00
2019-02-24T10:38:23.586Z,104332.00
2019-02-24T10:39:58.691Z,104336.00
2019-02-24T10:41:33.795Z,104334.00
2019-02-24T10:43:08.892Z,104332.00
2019-02-24T10:44:44.254Z,104343.00
2019-02-24T10:46:19.357Z,104342.00
2019-02-24T10:47:54.712Z,104346.00
2019-02-24T10:49:29.820Z,104346.00
2019-02-24T10:51:04.923Z,104338.00
2019-02-24T10:52:40.018Z,104332.00
2019-02-24T10:54:15.126Z,104332.00
2019-02-24T10:55:50.216Z,104326.00
2019-02-24T10:57:25.317Z,104326.00
2019-02-24T10:59:00.682Z,104321.00
2019-02-24T11:00:35.787Z,104328.00
2019-02-24T11:02:10.895Z,104321.00
2019-02-24T11:03:46.251Z,104318.00
2019-02-24T11:05:21.625Z,104323.00
2019-02-24T11:06:56.723Z,104322.00
2019-02-24T11:08:31.828Z,104319.00
2019-02-24T11:10:10.034Z,104321.00
2019-02-24T11:11:45.142Z,104320.00
2019-02-24T11:13:20.508Z,104322.00
2019-02-24T11:14:55.617Z,104317.00
2019-02-24T11:16:32.221Z,104323.00
2019-02-24T11:18:08.145Z,104320.00
2019-02-24T11:19:43.253Z,104323.00
2019-02-24T11:21:18.355Z,104322.00
2019-02-24T11:22:53.460Z,104322.00
2019-02-24T11:24:28.567Z,104316.00
2019-02-24T11:26:03.673Z,104314.00
2019-02-24T11:27:39.027Z,104306.00
2019-02-24T11:29:14.396Z,104305.00
2019-02-24T11:30:49.744Z,104305.00
2019-02-24T11:32:24.847Z,104304.00
2019-02-24T11:33:59.953Z,104304.00
2019-02-24T11:35:35.071Z,104315.00
2019-02-24T12:15:45.766Z,104339.00
2019-02-24T12:17:20.986Z,104339.00
2019-02-24T12:18:56.391Z,104345.00
2019-02-24T12:20:31.818Z,104342.00
2019-02-24T12:22:06.940Z,104344.00
2019-02-24T12:23:42.057Z,104341.00
2019-02-24T12:25:17.541Z,104336.00
2019-02-24T12:26:52.668Z,104333.00
2019-02-24T12:28:28.114Z,104318.00
2019-02-24T12:30:03.248Z,104325.00
2019-02-24T12:31:38.426Z,104329.00
2019-02-24T12:33:13.557Z,104327.00
2019-02-24T12:34:48.701Z,104338.00
2019-02-24T12:36:23.827Z,104331.00
2019-02-24T12:37:59.228Z,104320.00
2019-02-24T12:39:34.358Z,104322.00
2019-02-24T12:41:09.488Z,104320.00
2019-02-24T12:42:44.613Z,104318.00
2019-02-24T12:44:19.738Z,104329.00
2019-02-24T12:45:54.878Z,104327.00
2019-02-24T12:47:29.993Z,104331.00
2019-02-24T12:49:05.110Z,104329.00
2019-02-24T12:50:41.375Z,104327.00
2019-02-24T12:52:16.494Z,104330.00
2019-02-24T12:53:51.917Z,104327.00
2019-02-24T12:55:27.061Z,104329.00
2019-02-24T12:57:02.491Z,104328.00
2019-02-24T12:58:37.632Z,104330.00
2019-02-24T13:00:23.527Z,104323.00
2019-02-24T13:02:05.522Z,104320.00
2019-02-24T13:03:35.581Z,104321.00
2019-02-24T13:05:11.598Z,104323.00
2019-02-24T13:06:46.722Z,104324.00
2019-02-24T13:08:21.843Z,104321.00
2019-02-24T13:09:56.977Z,104322.00
2019-02-24T13:11:32.267Z,104318.00
2019-02-24T13:13:07.395Z,104311.00
2019-02-24T13:14:42.516Z,104310.00
2019-02-24T13:16:18.747Z,104301.00
2019-02-24T13:17:53.843Z,104300.00
2019-02-24T13:19:28.960Z,104291.00
2019-02-24T13:21:04.086Z,104293.00
2019-02-24T13:22:39.205Z,104293.00
2019-02-24T13:24:14.328Z,104291.00
2019-02-24T13:25:49.462Z,104290.00
2019-02-24T13:27:24.583Z,104288.00
2019-02-24T13:28:59.706Z,104287.00
2019-02-24T13:30:36.130Z,104287.00
2019-02-24T13:32:14.931Z,104289.00
2019-02-24T13:33:49.002Z,104283.00
2019-02-24T13:35:24.454Z,104280.00
2019-02-24T13:36:59.565Z,104267.00
2019-02-24T13:38:34.689Z,104269.00
2019-02-24T13:40:12.530Z,104268.00
2019-02-24T13:41:47.634Z,104276.00
2019-02-24T13:43:22.762Z,104281.00
2019-02-24T13:44:58.121Z,104279.00
2019-02-24T13:46:33.260Z,104270.00
2019-02-24T13:48:08.375Z,104280.00
2019-02-24T13:49:43.489Z,104268.00
2019-02-24T13:51:18.617Z,104269.00
2019-02-24T13:52:53.728Z,104271.00
2019-02-24T13:54:28.856Z,104268.00
2019-02-24T13:56:03.982Z,104263.00
2019-02-24T13:57:39.098Z,104273.00
2019-02-24T13:59:14.221Z,104267.00
2019-02-24T14:00:49.366Z,104274.00
2019-02-24T14:02:24.485Z,104276.00
2019-02-24T14:03:59.600Z,104266.00
2019-02-24T14:05:34.729Z,104266.00
2019-02-24T14:07:09.844Z,104272.00
2019-02-24T14:08:44.976Z,104274.00
2019-02-24T14:10:21.063Z,104283.00
2019-02-24T14:11:56.187Z,104279.00
2019-02-24T14:13:31.305Z,104280.00
2019-02-24T14:15:12.374Z,104280.00
2019-02-24T14:16:47.504Z,104276.00
2019-02-24T14:18:22.877Z,104287.00
2019-02-24T14:19:59.895Z,104289.00
2019-02-24T14:21:34.849Z,104282.00
2019-02-24T14:23:09.956Z,104287.00
2019-02-24T14:24:45.075Z,104282.00
2019-02-24T14:26:20.201Z,104281.00
2019-02-24T14:27:55.319Z,104285.00
2019-02-24T14:29:30.442Z,104290.00
2019-02-24T14:31:05.822Z,104285.00
2019-02-24T14:32:41.204Z,104280.00
2019-02-24T14:34:17.987Z,104292.00
2019-02-24T14:35:53.355Z,104290.00
2019-02-24T14:37:28.746Z,104286.00
2019-02-24T14:39:04.195Z,104293.00
2019-02-24T14:40:40.847Z,104293.00
2019-02-24T14:42:16.235Z,104293.00
2019-02-24T14:43:51.357Z,104303.00
2019-02-24T14:45:26.469Z,104298.00
2019-02-24T14:47:01.601Z,104288.00
2019-02-24T14:48:36.794Z,104286.00
2019-02-24T14:50:12.183Z,104287.00
2019-02-24T14:51:47.320Z,104291.00
2019-02-24T14:53:23.410Z,104293.00
2019-02-24T14:54:58.524Z,104301.00
2019-02-24T14:56:33.654Z,104298.00
2019-02-24T14:58:09.033Z,104298.00
2019-02-24T14:59:44.157Z,104298.00
2019-02-24T15:01:20.250Z,104310.00
2019-02-24T15:02:55.371Z,104302.00
2019-02-24T15:04:30.497Z,104310.00
2019-02-24T15:06:05.618Z,104313.00
2019-02-24T15:07:40.991Z,104300.00
2019-02-24T15:09:16.114Z,104301.00
2019-02-24T15:10:51.238Z,104304.00
2019-02-24T15:12:26.627Z,104300.00
2019-02-24T15:14:01.743Z,104305.00
2019-02-24T15:15:37.888Z,104307.00
2019-02-24T15:17:14.270Z,104303.00
2019-02-24T15:18:49.388Z,104294.00
2019-02-24T15:20:24.523Z,104300.00
2019-02-24T15:21:59.963Z,104295.00
2019-02-24T15:23:35.086Z,104292.00
2019-02-24T15:25:17.286Z,104294.00
2019-02-24T15:26:52.714Z,104285.00
2019-02-24T15:28:27.831Z,104274.00
2019-02-24T15:30:02.960Z,104278.00
2019-02-24T15:31:38.168Z,104272.00
2019-02-24T15:33:13.288Z,104259.00
2019-02-24T15:34:48.410Z,104263.00
2019-02-24T15:36:23.543Z,104254.00
2019-02-24T15:37:58.661Z,104257.00
2019-02-24T15:39:33.787Z,104251.00
2019-02-24T15:41:08.914Z,104255.00
2019-02-24T15:42:44.311Z,104264.00
2019-02-24T15:44:19.433Z,104261.00
2019-02-24T15:45:54.884Z,104264.00
2019-02-24T15:47:30.020Z,104262.00
2019-02-24T15:49:05.137Z,104271.00
2019-02-24T15:50:40.258Z,104277.00
2019-02-24T15:52:15.397Z,104273.00
2019-02-24T15:53:50.524Z,104270.00
2019-02-24T15:55:25.639Z,104264.00
2019-02-24T15:57:01.905Z,104260.00
2019-02-24T15:58:37.023Z,104255.00
2019-02-24T16:00:25.367Z,104267.00
2019-02-24T16:02:00.495Z,104273.00
2019-02-24T16:03:36.267Z,104264.00
2019-02-24T16:05:11.867Z,104255.00
2019-02-24T16:06:47.251Z,104261.00
2019-02-24T16:08:22.381Z,104255.00
2019-02-24T16:09:57.815Z,104262.00
2019-02-24T16:11:32.951Z,104257.00
2019-02-24T16:13:16.440Z,104258.00
2019-02-24T16:14:45.144Z,104254.00
2019-02-24T16:16:20.266Z,104248.00
2019-02-24T16:17:55.404Z,104254.00
2019-02-24T16:19:30.516Z,104250.00
2019-02-24T16:21:05.693Z,104250.00
2019-02-24T16:22:40.820Z,104255.00
2019-02-24T16:24:15.950Z,104253.00
2019-02-24T16:25:51.064Z,104258.00
2019-02-24T16:27:26.199Z,104261.00
2019-02-24T16:29:02.231Z,104257.00
2019-02-24T16:30:37.358Z,104260.00
2019-02-24T16:32:12.504Z,104262.00
2019-02-24T16:33:47.639Z,104257.00
2019-02-24T16:35:23.028Z,104257.00
2019-02-24T16:36:58.427Z,104258.00
2019-02-24T16:38:33.555Z,104261.00
2019-02-24T16:40:12.999Z,104253.00
2019-02-24T16:41:48.134Z,104251.00
2019-02-24T16:43:23.722Z,104259.00
2019-02-24T16:44:58.845Z,104269.00
2019-02-24T16:46:34.237Z,104265.00
2019-02-24T16:48:09.367Z,104261.00
2019-02-24T16:49:44.481Z,104257.00
2019-02-24T16:51:19.602Z,104249.00
2019-02-24T16:52:54.738Z,104250.00
2019-02-24T16:54:30.177Z,104238.00
2019-02-24T16:56:05.299Z,104238.00
2019-02-24T16:57:40.442Z,104229.00
2019-02-24T16:59:15.561Z,104241.00
2019-02-24T17:00:50.681Z,104238.00
2019-02-24T17:02:25.820Z,104244.00
2019-02-24T17:04:00.947Z,104243.00
2019-02-24T17:05:36.075Z,104243.00
2019-02-24T17:07:11.207Z,104242.00
2019-02-24T17:08:52.254Z,104242.00
2019-02-24T17:10:25.524Z,104245.00
2019-02-24T17:12:00.659Z,104243.00
2019-02-24T17:13:35.775Z,104235.00
2019-02-24T17:15:12.606Z,104235.00
2019-02-24T17:16:47.744Z,104244.00
2019-02-24T17:18:22.887Z,104232.00
2019-02-24T17:19:57.994Z,104231.00
2019-02-24T17:21:33.123Z,104234.00
2019-02-24T17:23:09.551Z,104238.00
2019-02-24T17:24:44.676Z,104235.00
2019-02-24T17:26:19.806Z,104243.00
2019-02-24T17:27:54.932Z,104244.00
2019-02-24T17:29:30.062Z,104241.00
2019-02-24T17:31:07.010Z,104240.00
2019-02-24T17:32:42.244Z,104243.00
2019-02-24T17:34:17.362Z,104246.00
2019-02-24T17:35:52.489Z,104251.00
2019-02-24T17:37:27.873Z,104238.00
2019-02-24T17:39:03.264Z,104242.00
2019-02-24T17:40:40.007Z,104243.00
2019-02-24T17:42:15.130Z,104246.00
2019-02-24T17:43:50.247Z,104250.00
2019-02-24T17:45:25.384Z,104254.00
2019-02-24T17:47:00.495Z,104251.00
2019-02-24T17:48:35.647Z,104249.00
2019-02-24T17:50:17.479Z,104253.00
2019-02-24T17:51:52.612Z,104260.00
2019-02-24T17:53:27.732Z,104260.00
2019-02-24T17:55:04.547Z,104256.00
2019-02-24T17:56:39.682Z,104255.00
2019-02-24T17:58:14.819Z,104242.00
2019-02-24T17:59:49.951Z,104245.00
2019-02-24T18:01:25.082Z,104245.00
2019-02-24T18:03:00.216Z,104242.00
2019-02-24T18:04:35.315Z,104249.00
2019-02-24T18:06:10.432Z,104252.00
2019-02-24T18:07:45.555Z,104250.00
2019-02-24T18:09:20.681Z,104262.00
2019-02-24T18:10:55.792Z,104251.00
2019-02-24T18:12:30.920Z,104253.00
2019-02-24T18:14:06.020Z,104243.00
2019-02-24T18:15:41.413Z,104248.00
2019-02-24T18:17:16.525Z,104249.00
2019-02-24T18:18:51.651Z,104248.00
2019-02-24T18:20:26.759Z,104248.00
2019-02-24T18:22:01.877Z,104248.00
2019-02-24T18:23:37.041Z,104243.00
2019-02-24T18:25:12.861Z,104243.00
2019-02-24T18:26:47.976Z,104249.00
2019-02-24T18:28:23.089Z,104246.00
2019-02-24T18:29:58.210Z,104244.00
2019-02-24T18:31:34.846Z,104239.00
2019-02-24T18:33:09.965Z,104245.00
2019-02-24T18:34:45.341Z,104234.00
2019-02-24T18:36:20.458Z,104229.00
2019-02-24T18:37:55.586Z,104235.00
2019-02-24T18:39:30.695Z,104235.00
2019-02-24T18:41:05.810Z,104232.00
2019-02-24T18:42:40.929Z,104230.00
2019-02-24T18:44:16.831Z,104235.00
2019-02-24T18:45:52.137Z,104225.00